Time;durP1;ratioP1;P1;durP2;ratioP2;P2;SDS_P1;SDS_P2;PMS_P1;PMS_P2;Temp;Humidity;BMP_temperature;BMP_pressure;BME280_temperature;BME280_humidity;BME280_pressure;Samples;Min_cycle;Max_cycle;Signal;HPM_P1;HPM_P2
2023/08/17 00:02:00;;;;;;;1999.90;999.90;;;19.20;80.20;;;;;;5090741;28;20036;-73
2023/08/17 00:04:26;;;;;;;1999.90;999.90;;;19.10;80.50;;;;;;5087445;28;20483;-73
2023/08/17 00:06:53;;;;;;;1999.90;999.90;;;19.20;79.90;;;;;;5089552;28;20039;-73
2023/08/17 00:09:18;;;;;;;1999.90;999.90;;;19.10;79.90;;;;;;5086924;28;20408;-73
2023/08/17 00:11:44;;;;;;;1999.90;999.90;;;19.10;80.90;;;;;;5086034;28;20029;-72
2023/08/17 00:14:10;;;;;;;1999.90;999.90;;;19.00;81.00;;;;;;5087481;28;20035;-73
2023/08/17 00:16:35;;;;;;;1999.90;999.90;;;18.90;81.10;;;;;;5087114;28;20561;-72
2023/08/17 00:19:02;;;;;;;1999.90;999.90;;;18.90;81.80;;;;;;5087494;28;20032;-73
2023/08/17 00:21:27;;;;;;;1999.90;999.90;;;18.90;81.90;;;;;;5088267;28;20055;-72
2023/08/17 00:23:53;;;;;;;1999.90;999.90;;;18.90;82.10;;;;;;5084267;28;20521;-73
2023/08/17 00:26:20;;;;;;;1999.90;999.90;;;18.90;81.40;;;;;;5087976;28;20506;-73
2023/08/17 00:28:45;;;;;;;1999.90;999.90;;;18.80;81.70;;;;;;5085892;28;20032;-72
2023/08/17 00:31:11;;;;;;;1999.90;999.90;;;18.80;81.60;;;;;;5088556;28;20047;-72
2023/08/17 00:33:37;;;;;;;1999.90;999.90;;;18.70;81.30;;;;;;5086997;28;20032;-73
2023/08/17 00:36:03;;;;;;;1999.90;999.90;;;18.60;81.40;;;;;;5086697;28;20033;-73
2023/08/17 00:38:28;;;;;;;1999.90;999.90;;;18.50;81.90;;;;;;5082443;28;20029;-72
2023/08/17 00:40:55;;;;;;;1999.90;999.90;;;18.50;82.10;;;;;;5087255;28;20047;-73
2023/08/17 00:43:21;;;;;;;1999.90;999.90;;;18.50;82.40;;;;;;5088564;28;20091;-72
2023/08/17 00:45:47;;;;;;;1999.90;999.90;;;18.50;83.80;;;;;;5090625;28;20031;-73
2023/08/17 00:48:13;;;;;;;1999.90;999.90;;;18.50;83.70;;;;;;5086972;28;20620;-73
2023/08/17 00:50:40;;;;;;;1999.90;999.90;;;18.50;83.50;;;;;;5088122;28;20039;-73
2023/08/17 00:53:07;;;;;;;1999.90;999.90;;;18.40;83.80;;;;;;5085569;28;20114;-73
2023/08/17 00:55:33;;;;;;;1999.90;999.90;;;18.40;84.00;;;;;;5087552;28;20024;-72
2023/08/17 00:57:59;;;;;;;1999.90;999.90;;;18.30;84.60;;;;;;5086746;28;20032;-73
2023/08/17 01:00:28;;;;;;;1999.90;999.90;;;18.30;84.70;;;;;;5088998;28;20107;-72
2023/08/17 01:02:54;;;;;;;1999.90;999.90;;;18.30;84.90;;;;;;5086361;28;20036;-73
2023/08/17 01:05:21;;;;;;;1999.90;999.90;;;18.30;84.70;;;;;;5083965;28;20031;-72
2023/08/17 01:07:47;;;;;;;1999.90;999.90;;;18.20;84.70;;;;;;5084004;28;20044;-72
2023/08/17 01:10:12;;;;;;;1999.90;999.90;;;18.30;84.40;;;;;;5085454;28;20499;-72
2023/08/17 01:12:45;;;;;;;1999.90;999.90;;;18.00;83.60;;;;;;5084733;28;20117;-73
2023/08/17 01:15:21;;;;;;;1999.90;999.90;;;17.90;84.10;;;;;;5084378;28;20655;-72
2023/08/17 01:18:10;;;;;;;1999.90;999.90;;;17.80;85.20;;;;;;5087751;28;20028;-73
2023/08/17 01:20:36;;;;;;;1999.90;999.90;;;17.90;86.10;;;;;;5090356;28;20024;-73
2023/08/17 01:23:06;;;;;;;1999.90;999.90;;;17.90;86.20;;;;;;5080178;28;20067;-73
2023/08/17 01:25:36;;;;;;;1999.90;999.90;;;18.00;85.90;;;;;;5091130;28;20490;-72
2023/08/17 01:28:03;;;;;;;1999.90;999.90;;;17.80;86.40;;;;;;5084359;28;20052;-73
2023/08/17 01:30:32;;;;;;;1999.90;999.90;;;17.90;86.70;;;;;;5087952;28;20127;-72
2023/08/17 01:33:05;;;;;;;1999.90;999.90;;;17.70;87.30;;;;;;5089819;28;20044;-73
2023/08/17 01:35:54;;;;;;;1999.90;999.90;;;17.70;88.00;;;;;;5085817;28;20048;-73
2023/08/17 01:38:23;;;;;;;1999.90;999.90;;;17.80;87.90;;;;;;5085742;28;20044;-72
2023/08/17 01:40:50;;;;;;;1999.90;999.90;;;17.80;87.10;;;;;;5084308;28;20478;-72
2023/08/17 01:43:18;;;;;;;1999.90;999.90;;;17.70;87.60;;;;;;5084291;28;20024;-72
2023/08/17 01:45:43;;;;;;;1999.90;999.90;;;17.60;88.10;;;;;;5084918;28;20043;-73
2023/08/17 01:48:09;;;;;;;1999.90;999.90;;;17.60;88.50;;;;;;5085167;28;20036;-73
2023/08/17 01:50:35;;;;;;;1999.90;999.90;;;17.70;88.30;;;;;;5085343;28;20564;-73
2023/08/17 01:53:00;;;;;;;1999.90;999.90;;;17.70;87.30;;;;;;5084605;28;20047;-73
2023/08/17 01:55:26;;;;;;;1999.90;999.90;;;17.60;87.00;;;;;;5084970;28;20394;-73
2023/08/17 01:57:52;;;;;;;1999.90;999.90;;;17.60;87.80;;;;;;5079376;28;20045;-73
2023/08/17 02:00:18;;;;;;;1999.90;999.90;;;17.60;88.50;;;;;;5087218;28;20047;-73
2023/08/17 02:02:44;;;;;;;1999.90;999.90;;;17.60;89.40;;;;;;5087218;28;20035;-72
2023/08/17 02:05:09;;;;;;;1999.90;999.90;;;17.60;89.30;;;;;;5087463;28;20391;-72
2023/08/17 02:07:35;;;;;;;1999.90;999.90;;;17.50;89.00;;;;;;5083426;28;20436;-73
2023/08/17 02:10:01;;;;;;;1999.90;999.90;;;17.40;88.90;;;;;;5089738;28;20513;-72
2023/08/17 02:12:26;;;;;;;1999.90;999.90;;;17.30;87.30;;;;;;5083735;28;20442;-72
2023/08/17 02:14:53;;;;;;;1999.90;999.90;;;17.20;86.70;;;;;;5083182;28;20032;-72
2023/08/17 02:17:19;;;;;;;1999.90;999.90;;;17.20;86.60;;;;;;5087629;28;20383;-73
2023/08/17 02:19:45;;;;;;;1999.90;999.90;;;17.30;86.70;;;;;;5077838;28;20031;-72
2023/08/17 02:22:10;;;;;;;1999.90;999.90;;;17.30;87.10;;;;;;5077253;28;20781;-72
2023/08/17 02:24:36;;;;;;;1999.90;999.90;;;17.30;87.40;;;;;;5080843;28;20048;-73
2023/08/17 02:27:02;;;;;;;1999.90;999.90;;;17.30;87.20;;;;;;5084288;28;20537;-73
2023/08/17 02:29:28;;;;;;;1999.90;999.90;;;17.20;88.00;;;;;;5084966;28;20036;-72
2023/08/17 02:31:53;;;;;;;1999.90;999.90;;;17.20;89.30;;;;;;5088670;28;20044;-73
2023/08/17 02:34:19;;;;;;;1999.90;999.90;;;17.20;89.30;;;;;;5086300;28;20039;-73
2023/08/17 02:36:45;;;;;;;1999.90;999.90;;;17.20;89.60;;;;;;5087775;28;20032;-73
2023/08/17 02:39:11;;;;;;;1999.90;999.90;;;17.20;89.10;;;;;;5086229;28;20032;-72
2023/08/17 02:41:36;;;;;;;1999.90;999.90;;;17.20;89.20;;;;;;5086657;28;20036;-73
2023/08/17 02:44:03;;;;;;;1999.90;999.90;;;17.10;89.20;;;;;;5085705;28;20081;-72
2023/08/17 02:46:29;;;;;;;1999.90;999.90;;;17.10;89.60;;;;;;5086798;28;20035;-72
2023/08/17 02:48:54;;;;;;;1999.90;999.90;;;17.00;90.40;;;;;;5083830;28;20036;-73
2023/08/17 02:51:20;;;;;;;1999.90;999.90;;;17.00;90.10;;;;;;5084831;28;20059;-73
2023/08/17 02:53:46;;;;;;;1999.90;999.90;;;17.00;90.10;;;;;;5081897;28;20486;-72
2023/08/17 02:56:12;;;;;;;1999.90;999.90;;;17.00;90.10;;;;;;5078503;28;20077;-72
2023/08/17 02:58:41;;;;;;;1999.90;999.90;;;17.00;89.60;;;;;;5082124;28;20024;-72
2023/08/17 03:01:07;;;;;;;1999.90;999.90;;;16.90;89.10;;;;;;5084020;28;20040;-72
2023/08/17 03:03:33;;;;;;;1999.90;999.90;;;16.90;89.20;;;;;;5082091;28;20067;-72
2023/08/17 03:05:59;;;;;;;1999.90;999.90;;;16.80;88.80;;;;;;5086141;28;20051;-72
2023/08/17 03:08:25;;;;;;;1999.90;999.90;;;16.80;88.90;;;;;;5084061;28;20592;-73
2023/08/17 03:10:50;;;;;;;1999.90;999.90;;;16.80;88.30;;;;;;5083820;28;20028;-72
2023/08/17 03:13:16;;;;;;;1999.90;999.90;;;16.80;88.40;;;;;;5085114;28;20153;-73
2023/08/17 03:15:42;;;;;;;1999.90;999.90;;;16.80;88.50;;;;;;5084016;28;20101;-72
2023/08/17 03:18:07;;;;;;;1999.90;999.90;;;16.70;88.90;;;;;;5083216;28;20037;-72
2023/08/17 03:20:33;;;;;;;1999.90;999.90;;;16.60;89.70;;;;;;5081821;28;20618;-73
2023/08/17 03:22:59;;;;;;;1999.90;999.90;;;16.50;89.20;;;;;;5085893;28;20036;-72
2023/08/17 03:25:24;;;;;;;1999.90;999.90;;;16.50;88.80;;;;;;5084261;28;20398;-72
2023/08/17 03:27:50;;;;;;;1999.90;999.90;;;16.40;89.10;;;;;;5083387;28;20055;-72
2023/08/17 03:30:15;;;;;;;1999.90;999.90;;;16.40;89.90;;;;;;5085249;28;20036;-72
2023/08/17 03:32:41;;;;;;;1999.90;999.90;;;16.60;89.80;;;;;;5082985;28;20077;-72
2023/08/17 03:35:07;;;;;;;1999.90;999.90;;;16.50;89.70;;;;;;5085348;28;20555;-72
2023/08/17 03:37:33;;;;;;;1999.90;999.90;;;16.50;90.10;;;;;;5086187;28;20032;-72
2023/08/17 03:40:00;;;;;;;1999.90;999.90;;;16.40;90.30;;;;;;5081473;28;20033;-72
2023/08/17 03:42:26;;;;;;;1999.90;999.90;;;16.40;90.30;;;;;;5083739;28;20036;-73
2023/08/17 03:44:52;;;;;;;1999.90;999.90;;;16.40;90.30;;;;;;5084685;28;20028;-72
2023/08/17 03:47:18;;;;;;;1999.90;999.90;;;16.30;90.10;;;;;;5084451;28;20060;-72
2023/08/17 03:49:43;;;;;;;1999.90;999.90;;;16.30;90.10;;;;;;5080166;28;20042;-72
2023/08/17 03:52:09;;;;;;;1999.90;999.90;;;16.40;90.10;;;;;;5085585;28;20035;-73
2023/08/17 03:54:36;;;;;;;1999.90;999.90;;;16.40;90.10;;;;;;5084684;28;20521;-73
2023/08/17 03:57:02;;;;;;;1999.90;999.90;;;16.40;90.20;;;;;;5083036;28;20552;-72
2023/08/17 03:59:27;;;;;;;1999.90;999.90;;;16.40;90.10;;;;;;5084887;28;20056;-73
2023/08/17 04:01:53;;;;;;;1999.90;999.90;;;16.40;90.00;;;;;;5085080;28;20105;-73
2023/08/17 04:04:19;;;;;;;1999.90;999.90;;;16.30;90.40;;;;;;5083161;28;20048;-72
2023/08/17 04:06:45;;;;;;;1999.90;999.90;;;16.30;90.40;;;;;;5085417;28;20020;-72
2023/08/17 04:09:10;;;;;;;1999.90;999.90;;;16.30;90.40;;;;;;5086819;28;20043;-72
2023/08/17 04:11:36;;;;;;;1999.90;999.90;;;16.30;90.50;;;;;;5083544;28;20024;-72
2023/08/17 04:14:03;;;;;;;1999.90;999.90;;;16.30;90.60;;;;;;5083135;28;20563;-72
2023/08/17 04:16:29;;;;;;;1999.90;999.90;;;16.30;90.60;;;;;;5082783;28;20412;-72
2023/08/17 04:18:54;;;;;;;1999.90;999.90;;;16.30;90.40;;;;;;5083057;28;20036;-72
2023/08/17 04:21:20;;;;;;;1999.90;999.90;;;16.30;90.20;;;;;;5082638;28;20554;-72
2023/08/17 04:23:46;;;;;;;1999.90;999.90;;;16.20;90.10;;;;;;5086131;28;20036;-73
2023/08/17 04:26:12;;;;;;;1999.90;999.90;;;16.20;90.30;;;;;;5080860;28;20186;-72
2023/08/17 04:28:37;;;;;;;1999.90;999.90;;;16.20;90.30;;;;;;5084759;28;20127;-72
2023/08/17 04:31:03;;;;;;;1999.90;999.90;;;16.20;90.40;;;;;;5091704;28;20580;-73
2023/08/17 04:33:29;;;;;;;1999.90;999.90;;;16.20;90.30;;;;;;5087691;28;20020;-72
2023/08/17 04:35:55;;;;;;;1999.90;999.90;;;16.20;90.60;;;;;;5086965;28;20032;-72
2023/08/17 04:38:20;;;;;;;1999.90;999.90;;;16.20;90.50;;;;;;5085723;28;20028;-72
2023/08/17 04:40:46;;;;;;;1999.90;999.90;;;16.30;90.40;;;;;;5086329;28;20033;-72
2023/08/17 04:43:12;;;;;;;1999.90;999.90;;;16.40;90.30;;;;;;5086652;28;20038;-73
2023/08/17 04:45:38;;;;;;;1999.90;999.90;;;16.30;90.20;;;;;;5086523;28;20035;-72
2023/08/17 04:48:04;;;;;;;1999.90;999.90;;;16.40;90.20;;;;;;5084720;28;20028;-72
2023/08/17 04:50:30;;;;;;;1999.90;999.90;;;16.30;90.00;;;;;;5090896;28;20036;-72
2023/08/17 04:52:55;;;;;;;1999.90;999.90;;;16.40;90.30;;;;;;5088025;28;20744;-73
2023/08/17 04:55:21;;;;;;;1999.90;999.90;;;16.50;90.00;;;;;;5086952;28;20035;-73
2023/08/17 04:57:46;;;;;;;1999.90;999.90;;;16.50;90.30;;;;;;5086226;28;20478;-72
2023/08/17 05:00:14;;;;;;;1999.90;999.90;;;16.70;90.20;;;;;;5085575;28;20081;-72
2023/08/17 05:02:39;;;;;;;1999.90;999.90;;;16.70;90.00;;;;;;5089984;28;20039;-73
2023/08/17 05:05:07;;;;;;;1999.90;999.90;;;16.80;89.80;;;;;;5087536;28;20028;-73
2023/08/17 05:07:33;;;;;;;1999.90;999.90;;;17.00;89.40;;;;;;5084797;28;20063;-72
2023/08/17 05:09:59;;;;;;;1999.90;999.90;;;17.00;88.70;;;;;;5084850;28;20447;-71
2023/08/17 05:12:25;;;;;;;1999.90;999.90;;;17.10;88.80;;;;;;5086702;28;20028;-71
2023/08/17 05:14:50;;;;;;;1999.90;999.90;;;17.20;88.50;;;;;;5087626;28;20391;-71
2023/08/17 05:17:16;;;;;;;1999.90;999.90;;;17.30;87.60;;;;;;5092366;28;20029;-70
2023/08/17 05:19:42;;;;;;;1999.90;999.90;;;17.30;87.90;;;;;;5098776;28;20477;-70
2023/08/17 05:22:11;;;;;;;1999.90;999.90;;;17.20;88.60;;;;;;5092479;28;20043;-69
2023/08/17 05:24:37;;;;;;;1999.90;999.90;;;17.40;88.40;;;;;;5095077;28;20036;-70
2023/08/17 05:27:02;;;;;;;1999.90;999.90;;;17.50;87.80;;;;;;5085091;28;20063;-70
2023/08/17 05:29:28;;;;;;;1999.90;999.90;;;17.70;87.50;;;;;;5086621;28;20619;-73
2023/08/17 05:31:54;;;;;;;1999.90;999.90;;;17.70;87.80;;;;;;5075487;28;20044;-72
2023/08/17 05:34:19;;;;;;;1999.90;999.90;;;17.80;88.10;;;;;;5088482;28;20020;-73
2023/08/17 05:36:45;;;;;;;1999.90;999.90;;;17.90;88.20;;;;;;5080701;28;20040;-73
2023/08/17 05:39:12;;;;;;;1999.90;999.90;;;18.00;87.90;;;;;;5084069;28;20047;-73
2023/08/17 05:41:37;;;;;;;1999.90;999.90;;;18.20;87.50;;;;;;5081150;28;20032;-73
2023/08/17 05:44:03;;;;;;;1999.90;999.90;;;18.20;86.80;;;;;;5081899;28;20043;-73
2023/08/17 05:46:29;;;;;;;1999.90;999.90;;;18.20;86.50;;;;;;5079479;28;20036;-73
2023/08/17 05:48:55;;;;;;;1999.90;999.90;;;18.30;86.10;;;;;;5084385;28;20036;-73
2023/08/17 05:51:20;;;;;;;1999.90;999.90;;;18.30;87.00;;;;;;5083443;28;20121;-73
2023/08/17 05:53:46;;;;;;;1999.90;999.90;;;18.50;87.00;;;;;;5082917;28;20039;-72
2023/08/17 05:56:11;;;;;;;1999.90;999.90;;;18.60;86.60;;;;;;5083002;28;20032;-73
2023/08/17 05:58:37;;;;;;;1999.90;999.90;;;18.70;85.30;;;;;;5081854;28;20032;-77
2023/08/17 06:01:07;;;;;;;1999.90;999.90;;;18.80;85.30;;;;;;5082297;28;20123;-75
2023/08/17 06:03:34;;;;;;;1999.90;999.90;;;18.90;84.50;;;;;;5083526;28;20020;-75
2023/08/17 06:06:00;;;;;;;1999.90;999.90;;;18.90;84.70;;;;;;5084869;28;20111;-75
2023/08/17 06:08:26;;;;;;;1999.90;999.90;;;19.00;84.40;;;;;;5080568;28;20517;-75
2023/08/17 06:10:51;;;;;;;1999.90;999.90;;;19.00;82.80;;;;;;5080559;28;20036;-75
2023/08/17 06:13:17;;;;;;;1999.90;999.90;;;19.10;82.50;;;;;;5081783;28;20103;-75
2023/08/17 06:15:42;;;;;;;1999.90;999.90;;;19.10;81.40;;;;;;5082218;28;20028;-75
2023/08/17 06:18:08;;;;;;;1999.90;999.90;;;19.10;82.50;;;;;;5083078;28;20116;-75
2023/08/17 06:20:35;;;;;;;1999.90;999.90;;;19.20;81.70;;;;;;5086657;28;20111;-75
2023/08/17 06:23:01;;;;;;;1999.90;999.90;;;19.20;80.20;;;;;;5078227;28;20133;-75
2023/08/17 06:25:27;;;;;;;1999.90;999.90;;;19.30;80.60;;;;;;5081402;28;20478;-75
2023/08/17 06:27:52;;;;;;;1999.90;999.90;;;19.40;79.80;;;;;;5084632;28;20166;-76
2023/08/17 06:30:18;;;;;;;1999.90;999.90;;;19.50;80.00;;;;;;5079081;28;20040;-75
2023/08/17 06:32:44;;;;;;;1999.90;999.90;;;19.60;78.30;;;;;;5081475;28;20062;-75
2023/08/17 06:35:10;;;;;;;1999.90;999.90;;;19.60;77.90;;;;;;5083182;28;20025;-75
2023/08/17 06:37:35;;;;;;;1999.90;999.90;;;19.80;77.50;;;;;;5084343;28;20411;-75
2023/08/17 06:40:03;;;;;;;1999.90;999.90;;;19.90;78.10;;;;;;5085361;28;20606;-75
2023/08/17 06:42:28;;;;;;;1999.90;999.90;;;20.10;74.60;;;;;;5084951;28;20101;-75
2023/08/17 06:44:54;;;;;;;1999.90;999.90;;;20.10;74.70;;;;;;5085597;28;20147;-76
2023/08/17 06:47:20;;;;;;;1999.90;999.90;;;20.20;74.50;;;;;;5083522;28;20028;-75
2023/08/17 06:49:45;;;;;;;1999.90;999.90;;;20.40;75.00;;;;;;5083386;28;20039;-75
2023/08/17 06:52:11;;;;;;;1999.90;999.90;;;20.40;73.10;;;;;;5081470;28;20033;-76
2023/08/17 06:54:37;;;;;;;1999.90;999.90;;;20.70;71.90;;;;;;5081425;28;20059;-75
2023/08/17 06:57:03;;;;;;;1999.90;999.90;;;20.90;71.10;;;;;;5079005;28;20036;-75
2023/08/17 06:59:28;;;;;;;1999.90;999.90;;;21.00;70.40;;;;;;5082209;28;20032;-76
2023/08/17 07:01:54;;;;;;;1999.90;999.90;;;21.20;69.90;;;;;;5085917;28;20046;-75
2023/08/17 07:04:20;;;;;;;1999.90;999.90;;;21.40;71.60;;;;;;5086263;28;20035;-75
2023/08/17 07:06:45;;;;;;;1999.90;999.90;;;21.60;69.40;;;;;;5084874;28;20024;-75
2023/08/17 07:09:12;;;;;;;1999.90;999.90;;;21.80;68.60;;;;;;5083766;28;20036;-75
2023/08/17 07:11:38;;;;;;;1999.90;999.90;;;21.70;68.10;;;;;;5084496;28;20397;-75
2023/08/17 07:14:06;;;;;;;1999.90;999.90;;;22.20;70.90;;;;;;5087008;28;20039;-72
2023/08/17 07:16:32;;;;;;;1999.90;999.90;;;22.40;70.70;;;;;;5085233;28;20035;-73
2023/08/17 07:18:58;;;;;;;1999.90;999.90;;;22.40;69.10;;;;;;5086041;28;20371;-73
2023/08/17 07:21:24;;;;;;;1999.90;999.90;;;22.80;66.10;;;;;;5084061;28;20036;-73
2023/08/17 07:23:51;;;;;;;1999.90;999.90;;;23.00;65.50;;;;;;5080559;28;20432;-72
2023/08/17 07:26:18;;;;;;;1999.90;999.90;;;22.90;65.20;;;;;;5080354;28;20525;-72
2023/08/17 07:28:45;;;;;;;1999.90;999.90;;;22.90;64.90;;;;;;5081714;28;20036;-73
2023/08/17 07:31:10;;;;;;;1999.90;999.90;;;22.90;65.00;;;;;;5084978;28;20093;-73
2023/08/17 07:33:36;;;;;;;1999.90;999.90;;;22.90;65.70;;;;;;5083616;28;20105;-73
2023/08/17 07:36:03;;;;;;;1999.90;999.90;;;23.00;63.40;;;;;;5082930;28;20109;-72
2023/08/17 07:38:28;;;;;;;1999.90;999.90;;;23.00;65.10;;;;;;5082386;28;20024;-73
2023/08/17 07:40:55;;;;;;;1999.90;999.90;;;23.30;65.00;;;;;;5085356;28;20122;-72
2023/08/17 07:43:21;;;;;;;1999.90;999.90;;;23.30;64.70;;;;;;5084391;28;20150;-72
2023/08/17 07:45:56;;;;;;;1999.90;999.90;;;23.30;64.40;;;;;;5084108;28;20126;-72
2023/08/17 07:48:22;;;;;;;1999.90;999.90;;;23.30;65.40;;;;;;5081914;28;20027;-72
2023/08/17 07:50:51;;;;;;;1999.90;999.90;;;23.50;63.60;;;;;;5080478;28;20034;-72
2023/08/17 07:53:18;;;;;;;1999.90;999.90;;;23.30;63.00;;;;;;5078887;28;20036;-72
2023/08/17 07:55:44;;;;;;;1999.90;999.90;;;23.00;61.90;;;;;;5084964;28;20107;-72
2023/08/17 07:58:09;;;;;;;1999.90;999.90;;;23.40;61.50;;;;;;5085343;28;20099;-72
2023/08/17 08:00:35;;;;;;;1999.90;999.90;;;23.30;60.90;;;;;;5082349;28;20101;-72
2023/08/17 08:03:01;;;;;;;1999.90;999.90;;;23.80;59.10;;;;;;5081493;28;20036;-72
2023/08/17 08:05:26;;;;;;;1999.90;999.90;;;24.20;61.50;;;;;;5087148;28;20035;-73
2023/08/17 08:07:52;;;;;;;1999.90;999.90;;;24.20;58.70;;;;;;5088605;28;20032;-72
2023/08/17 08:10:18;;;;;;;1999.90;999.90;;;24.00;57.90;;;;;;5080755;28;20513;-72
2023/08/17 08:12:44;;;;;;;1999.90;999.90;;;24.20;55.50;;;;;;5079512;28;20308;-73
2023/08/17 08:15:10;;;;;;;1999.90;999.90;;;24.50;54.70;;;;;;5082493;28;20032;-72
2023/08/17 08:17:35;;;;;;;1999.90;999.90;;;25.00;53.60;;;;;;5079798;28;20039;-73
2023/08/17 08:20:01;;;;;;;1999.90;999.90;;;25.20;52.90;;;;;;5083490;28;20486;-73
2023/08/17 08:22:27;;;;;;;1999.90;999.90;;;25.30;53.40;;;;;;5082425;28;20038;-72
2023/08/17 08:24:53;;;;;;;1999.90;999.90;;;24.80;55.40;;;;;;5084465;28;20035;-72
2023/08/17 08:27:18;;;;;;;1999.90;999.90;;;25.10;52.30;;;;;;5086529;28;20409;-73
2023/08/17 08:29:44;;;;;;;1999.90;999.90;;;25.30;51.10;;;;;;5090075;28;20527;-72
2023/08/17 08:32:10;;;;;;;1999.90;999.90;;;25.10;51.50;;;;;;5086544;28;20040;-72
2023/08/17 08:34:35;;;;;;;1999.90;999.90;;;25.20;52.60;;;;;;5089425;28;20024;-73
2023/08/17 08:37:01;;;;;;;1999.90;999.90;;;25.60;54.40;;;;;;5086578;28;20038;-72
2023/08/17 08:39:27;;;;;;;1999.90;999.90;;;25.40;52.70;;;;;;5085109;28;20786;-73
2023/08/17 08:41:54;;;;;;;1999.90;999.90;;;25.10;55.00;;;;;;5085038;28;20078;-73
2023/08/17 08:44:20;;;;;;;1999.90;999.90;;;25.50;54.20;;;;;;5085157;28;20405;-73
2023/08/17 08:46:46;;;;;;;1999.90;999.90;;;25.50;52.00;;;;;;5088776;28;20033;-72
2023/08/17 08:49:15;;;;;;;1999.90;999.90;;;25.60;54.70;;;;;;5085018;28;20101;-73
2023/08/17 08:51:46;;;;;;;1999.90;999.90;;;25.70;55.30;;;;;;5083700;28;20427;-72
2023/08/17 08:54:26;;;;;;;1999.90;999.90;;;25.90;52.80;;;;;;5084174;28;20385;-72
2023/08/17 08:56:54;;;;;;;;;;;26.30;54.70;;;;;;5080395;28;20079;-74
2023/08/17 08:59:21;;;;;;;1999.90;999.90;;;26.80;53.60;;;;;;5083090;28;19916;-73
2023/08/17 09:01:47;;;;;;;1999.90;999.90;;;27.00;54.10;;;;;;5087898;28;20032;-74
2023/08/17 09:04:13;;;;;;;1999.90;999.90;;;26.80;56.80;;;;;;5084558;28;20039;-76
2023/08/17 09:06:42;;;;;;;1999.90;999.90;;;26.90;51.90;;;;;;5086881;28;20028;-72
2023/08/17 09:09:08;;;;;;;1999.90;999.90;;;26.80;55.20;;;;;;5091951;28;20078;-72
2023/08/17 09:11:34;;;;;;;1999.90;999.90;;;27.10;51.40;;;;;;5091513;28;20039;-71
2023/08/17 09:14:00;;;;;;;1999.90;999.90;;;27.70;52.20;;;;;;5090479;28;20024;-71
2023/08/17 09:16:27;;;;;;;1999.90;999.90;;;27.60;51.00;;;;;;5085868;28;20024;-72
2023/08/17 09:18:53;;;;;;;1999.90;999.90;;;27.80;52.30;;;;;;5081852;28;20036;-73
2023/08/17 09:21:23;;;;;;;1999.90;999.90;;;27.80;50.50;;;;;;5088198;28;20535;-72
2023/08/17 09:23:56;;;;;;;1999.90;999.90;;;28.00;50.10;;;;;;5089685;28;20036;-72
2023/08/17 09:26:23;;;;;;;1999.90;999.90;;;27.70;54.00;;;;;;5086679;28;20136;-74
2023/08/17 09:28:50;;;;;;;1999.90;999.90;;;27.60;54.00;;;;;;5087171;28;20023;-75
2023/08/17 09:31:16;;;;;;;1999.90;999.90;;;27.80;51.90;;;;;;5091068;28;20040;-73
2023/08/17 09:33:41;;;;;;;1999.90;999.90;;;28.20;49.10;;;;;;5086233;28;20498;-74
2023/08/17 09:36:11;;;;;;;1999.90;999.90;;;28.70;51.40;;;;;;5084061;28;20040;-74
2023/08/17 09:38:38;;;;;;;1999.90;999.90;;;28.90;49.20;;;;;;5083443;28;20032;-74
2023/08/17 09:41:06;;;;;;;1999.90;999.90;;;28.60;53.10;;;;;;5083177;28;20434;-74
2023/08/17 09:43:33;;;;;;;1999.90;999.90;;;28.70;47.10;;;;;;5084401;28;20400;-73
2023/08/17 09:46:01;;;;;;;1999.90;999.90;;;28.30;50.60;;;;;;5085352;28;20055;-73
2023/08/17 09:48:27;;;;;;;1999.90;999.90;;;28.80;50.00;;;;;;5085971;28;20024;-73
2023/08/17 09:50:56;;;;;;;1999.90;999.90;;;28.30;47.80;;;;;;5082290;28;20441;-73
2023/08/17 09:53:22;;;;;;;1999.90;999.90;;;28.50;51.00;;;;;;5075274;28;20036;-74
2023/08/17 09:55:48;;;;;;;1999.90;999.90;;;29.20;50.70;;;;;;5080325;28;20043;-73
2023/08/17 09:58:17;;;;;;;1999.90;999.90;;;29.20;46.80;;;;;;5082868;28;22163;-74
2023/08/17 10:00:49;;;;;;;1999.90;999.90;;;29.10;47.70;;;;;;5080100;28;20048;-73
2023/08/17 10:03:15;;;;;;;1999.90;999.90;;;28.90;47.10;;;;;;5076378;28;20035;-73
2023/08/17 10:05:43;;;;;;;1999.90;999.90;;;29.50;50.30;;;;;;5081975;28;21759;-74
2023/08/17 10:08:11;;;;;;;1999.90;999.90;;;29.70;47.30;;;;;;5085502;28;20402;-73
2023/08/17 10:10:44;;;;;;;1999.90;999.90;;;30.20;46.60;;;;;;5087263;28;20115;-73
2023/08/17 10:13:10;;;;;;;1999.90;999.90;;;30.00;46.90;;;;;;5084443;28;20036;-74
2023/08/17 10:15:50;;;;;;;1999.90;999.90;;;30.30;49.00;;;;;;5084783;28;20508;-73
2023/08/17 10:18:42;;;;;;;1999.90;999.90;;;30.70;45.90;;;;;;5082731;28;20044;-74
2023/08/17 10:21:16;;;;;;;1999.90;999.90;;;30.00;44.00;;;;;;5079650;28;20823;-73
2023/08/17 10:23:44;;;;;;;1999.90;999.90;;;29.10;49.50;;;;;;5081854;28;20036;-74
2023/08/17 10:26:10;;;;;;;1999.90;999.90;;;29.60;48.30;;;;;;5077396;28;20036;-73
2023/08/17 10:28:37;;;;;;;1999.90;999.90;;;30.10;42.80;;;;;;5085758;28;20027;-74
2023/08/17 10:31:03;;;;;;;1999.90;999.90;;;30.10;45.30;;;;;;5082562;28;20093;-74
2023/08/17 10:33:30;;;;;;;1999.90;999.90;;;30.10;48.90;;;;;;5086057;28;20039;-74
2023/08/17 10:35:56;;;;;;;1999.90;999.90;;;30.00;46.00;;;;;;5082425;28;20792;-74
2023/08/17 10:38:22;;;;;;;1999.90;999.90;;;29.70;47.30;;;;;;5079855;28;20047;-74
2023/08/17 10:41:08;;;;;;;1999.90;999.90;;;30.50;46.30;;;;;;5083511;28;20731;-74
2023/08/17 10:43:34;;;;;;;1999.90;999.90;;;30.30;46.10;;;;;;5080093;28;20054;-74
2023/08/17 10:46:16;;;;;;;1999.90;999.90;;;30.60;47.20;;;;;;5081858;28;20386;-74
2023/08/17 10:48:44;;;;;;;1999.90;999.90;;;30.30;45.20;;;;;;5076846;28;20390;-74
2023/08/17 10:51:13;;;;;;;1999.90;999.90;;;30.70;45.80;;;;;;5076030;28;20085;-74
2023/08/17 10:53:44;;;;;;;1999.90;999.90;;;31.00;45.50;;;;;;5085010;28;20051;-74
2023/08/17 10:56:12;;;;;;;1999.90;999.90;;;31.00;42.70;;;;;;5082624;28;20072;-74
2023/08/17 10:58:38;;;;;;;1999.90;999.90;;;31.30;43.10;;;;;;5078622;28;20119;-74
2023/08/17 11:01:04;;;;;;;1999.90;999.90;;;31.80;42.00;;;;;;5081685;28;20141;-74
2023/08/17 11:03:30;;;;;;;1999.90;999.90;;;32.20;42.40;;;;;;5082633;28;20118;-75
2023/08/17 11:05:57;;;;;;;1999.90;999.90;;;32.20;39.00;;;;;;5081174;28;20038;-74
2023/08/17 11:08:27;;;;;;;1999.90;999.90;;;32.70;38.20;;;;;;5084908;28;20027;-76
2023/08/17 11:11:06;;;;;;;1999.90;999.90;;;32.60;37.70;;;;;;5086988;28;20081;-76
2023/08/17 11:13:33;;;;;;;1999.90;999.90;;;33.00;36.50;;;;;;5086535;28;20036;-76
2023/08/17 11:16:00;;;;;;;1999.90;999.90;;;33.30;37.30;;;;;;5087050;28;20087;-76
2023/08/17 11:18:26;;;;;;;1999.90;999.90;;;33.50;34.30;;;;;;5084500;28;20039;-77
2023/08/17 11:20:54;;;;;;;1999.90;999.90;;;33.70;36.10;;;;;;5083726;28;20056;-78
2023/08/17 11:23:20;;;;;;;1999.90;999.90;;;34.30;31.60;;;;;;5081334;28;20028;-76
2023/08/17 11:25:46;;;;;;;1999.90;999.90;;;33.50;34.10;;;;;;5083592;28;20060;-76
2023/08/17 11:28:16;;;;;;;1999.90;999.90;;;32.70;36.90;;;;;;5083212;28;20071;-76
2023/08/17 11:30:42;;;;;;;;;;;33.70;33.50;;;;;;5082938;28;20043;-76
2023/08/17 11:33:08;;;;;;;1999.90;999.90;;;33.90;32.40;;;;;;5079707;28;19932;-76
2023/08/17 11:35:35;;;;;;;1999.90;999.90;;;33.80;35.70;;;;;;5078190;28;20103;-76
2023/08/17 11:38:00;;;;;;;1999.90;999.90;;;33.50;38.30;;;;;;5083205;28;20044;-76
2023/08/17 11:40:27;;;;;;;1999.90;999.90;;;33.50;34.80;;;;;;5088848;28;20024;-75
2023/08/17 11:42:53;;;;;;;1999.90;999.90;;;33.60;38.00;;;;;;5083019;28;20036;-75
2023/08/17 11:45:19;;;;;;;1999.90;999.90;;;34.30;36.20;;;;;;5084649;28;20035;-76
2023/08/17 11:47:47;;;;;;;1999.90;999.90;;;34.10;32.70;;;;;;5089401;28;20058;-76
2023/08/17 11:50:14;;;;;;;1999.90;999.90;;;33.80;34.90;;;;;;5086678;28;20035;-76
2023/08/17 11:52:40;;;;;;;1999.90;999.90;;;34.70;30.90;;;;;;5086911;28;20020;-74
2023/08/17 11:55:07;;;;;;;1999.90;999.90;;;34.30;32.70;;;;;;5082436;28;20036;-75
2023/08/17 11:57:33;;;;;;;1999.90;999.90;;;34.60;29.20;;;;;;5085549;28;20028;-75
2023/08/17 11:59:59;;;;;;;1999.90;999.90;;;35.90;26.70;;;;;;5082110;28;20039;-76